createdAt,value
2022-08-26T00:00:16.320Z,8.10
2022-08-26T00:01:16.287Z,7.60
2022-08-26T00:02:16.313Z,10.50
2022-08-26T00:03:16.298Z,8.20
2022-08-26T00:04:16.329Z,7.50
2022-08-26T00:05:16.267Z,8.00
2022-08-26T00:06:16.246Z,9.50
2022-08-26T00:07:16.246Z,6.70
2022-08-26T00:08:16.216Z,8.20
2022-08-26T00:09:16.877Z,8.90
2022-08-26T00:10:16.175Z,7.80
2022-08-26T00:11:16.176Z,8.00
2022-08-26T00:12:17.145Z,8.60
2022-08-26T00:13:16.148Z,8.60
2022-08-26T00:14:16.192Z,9.00
2022-08-26T00:15:16.144Z,10.10
2022-08-26T00:16:16.172Z,7.70
2022-08-26T00:17:16.113Z,6.70
2022-08-26T00:18:21.776Z,7.30
2022-08-26T00:19:17.109Z,7.80
2022-08-26T00:20:16.154Z,9.30
2022-08-26T00:21:16.045Z,9.10
2022-08-26T00:22:20.158Z,9.60
2022-08-26T00:23:16.051Z,8.60
2022-08-26T00:24:16.012Z,10.00
2022-08-26T00:25:16.062Z,7.40
2022-08-26T00:26:15.962Z,8.70
2022-08-26T00:27:15.953Z,10.00
2022-08-26T00:28:15.965Z,10.80
2022-08-26T00:29:15.978Z,7.50
2022-08-26T00:30:15.932Z,10.60
2022-08-26T00:31:16.963Z,8.10
2022-08-26T00:32:15.941Z,10.80
2022-08-26T00:33:15.881Z,9.40
2022-08-26T00:34:15.891Z,8.60
2022-08-26T00:35:15.960Z,7.50
2022-08-26T00:36:20.222Z,9.10
2022-08-26T00:37:16.349Z,10.30
2022-08-26T00:38:15.810Z,10.60
2022-08-26T00:39:15.800Z,9.10
2022-08-26T00:40:15.839Z,9.60
2022-08-26T00:41:17.009Z,10.10
2022-08-26T00:42:15.793Z,7.70
2022-08-26T00:43:15.755Z,8.60
2022-08-26T00:44:15.730Z,8.80
2022-08-26T00:45:15.814Z,8.20
2022-08-26T00:46:15.766Z,9.30
2022-08-26T00:47:15.738Z,10.00
2022-08-26T00:48:15.709Z,8.50
2022-08-26T00:49:15.679Z,11.10
2022-08-26T00:50:15.676Z,8.30
2022-08-26T00:51:15.668Z,7.90
2022-08-26T00:52:15.627Z,7.30
2022-08-26T00:53:15.751Z,10.40
2022-08-26T00:54:15.680Z,10.70
2022-08-26T00:55:20.161Z,8.80
2022-08-26T00:56:15.595Z,8.50
2022-08-26T00:57:16.040Z,8.50
2022-08-26T00:58:15.565Z,9.70
2022-08-26T00:59:15.580Z,8.70
2022-08-26T01:00:15.536Z,7.70
2022-08-26T01:01:15.541Z,8.20
2022-08-26T01:02:20.223Z,8.60
2022-08-26T01:03:16.515Z,11.90
2022-08-26T01:04:15.545Z,8.00
2022-08-26T01:05:15.484Z,9.30
2022-08-26T01:06:15.494Z,9.30
2022-08-26T01:07:15.445Z,8.30
2022-08-26T01:08:15.444Z,10.00
2022-08-26T01:09:15.443Z,10.50
2022-08-26T01:10:15.411Z,9.60
2022-08-26T01:11:15.461Z,9.10
2022-08-26T01:12:15.418Z,10.20
2022-08-26T01:13:16.382Z,9.10
2022-08-26T01:14:15.361Z,9.80
2022-08-26T01:15:15.375Z,7.60
2022-08-26T01:16:15.464Z,8.90
2022-08-26T01:17:15.321Z,9.70
2022-08-26T01:18:15.327Z,9.20
2022-08-26T01:19:15.300Z,9.60
2022-08-26T01:20:15.278Z,9.90
2022-08-26T01:21:15.301Z,10.30
2022-08-26T01:22:15.249Z,9.10
2022-08-26T01:23:15.270Z,9.60
2022-08-26T01:24:15.220Z,9.80
2022-08-26T01:25:15.250Z,9.60
2022-08-26T01:26:19.747Z,12.20
2022-08-26T01:27:15.201Z,9.20
2022-08-26T01:28:15.179Z,10.40
2022-08-26T01:29:15.168Z,11.70
2022-08-26T01:30:15.157Z,10.80
2022-08-26T01:31:15.209Z,10.20
2022-08-26T01:32:15.127Z,12.70
2022-08-26T01:33:15.129Z,9.70
2022-08-26T01:34:15.117Z,9.80
2022-08-26T01:35:15.094Z,10.70
2022-08-26T01:36:15.115Z,10.40
2022-08-26T01:37:16.101Z,10.60
2022-08-26T01:38:15.061Z,9.70
2022-08-26T01:39:15.018Z,10.60
2022-08-26T01:40:15.109Z,11.60
2022-08-26T01:41:19.571Z,10.00
2022-08-26T01:42:16.017Z,11.70
2022-08-26T01:43:14.994Z,9.40
2022-08-26T01:44:15.011Z,8.90
2022-08-26T01:45:14.965Z,8.70
2022-08-26T01:46:15.042Z,7.70
2022-08-26T01:47:14.968Z,8.80
2022-08-26T01:48:14.924Z,12.20
2022-08-26T01:49:14.905Z,10.80
2022-08-26T01:50:17.908Z,11.30
2022-08-26T01:51:15.925Z,10.80
2022-08-26T01:52:14.873Z,10.70
2022-08-26T01:53:14.892Z,11.00
2022-08-26T01:54:14.864Z,9.40
2022-08-26T01:55:14.823Z,9.90
2022-08-26T01:56:15.852Z,12.50
2022-08-26T01:57:14.833Z,10.50
2022-08-26T01:58:14.811Z,10.80
2022-08-26T01:59:14.773Z,9.80
2022-08-26T02:00:14.777Z,11.00
2022-08-26T02:01:14.819Z,11.50
2022-08-26T02:02:14.732Z,9.10
2022-08-26T02:03:14.741Z,9.50
2022-08-26T02:04:14.741Z,12.10
2022-08-26T02:05:14.734Z,11.30
2022-08-26T02:06:14.732Z,10.40
2022-08-26T02:07:14.700Z,12.30
2022-08-26T02:08:14.747Z,11.80
2022-08-26T02:09:15.672Z,11.00
2022-08-26T02:10:14.659Z,9.40
2022-08-26T02:11:14.642Z,11.50
2022-08-26T02:12:14.618Z,12.90
2022-08-26T02:13:14.599Z,10.10
2022-08-26T02:14:14.578Z,12.40
2022-08-26T02:15:14.581Z,11.00
2022-08-26T02:16:14.737Z,10.80
2022-08-26T02:17:14.548Z,9.30
2022-08-26T02:18:14.660Z,10.40
2022-08-26T02:19:16.995Z,10.10
2022-08-26T02:20:14.950Z,9.80
2022-08-26T02:21:14.509Z,10.10
2022-08-26T02:22:14.485Z,12.30
2022-08-26T02:23:14.487Z,12.80
2022-08-26T02:24:14.465Z,11.60
2022-08-26T02:25:14.472Z,11.40
2022-08-26T02:26:16.490Z,10.80
2022-08-26T02:27:14.414Z,11.00
2022-08-26T02:28:14.435Z,12.20
2022-08-26T02:29:14.425Z,9.80
2022-08-26T02:30:14.397Z,12.80
2022-08-26T02:31:14.414Z,11.00
2022-08-26T02:32:14.354Z,9.90
2022-08-26T02:33:14.366Z,10.80
2022-08-26T02:34:14.324Z,13.80
2022-08-26T02:35:16.080Z,11.10
2022-08-26T02:36:15.334Z,12.00
2022-08-26T02:37:14.313Z,12.20
2022-08-26T02:38:14.442Z,12.10
2022-08-26T02:39:18.002Z,11.30
2022-08-26T02:40:15.303Z,11.60
2022-08-26T02:41:14.270Z,13.20
2022-08-26T02:42:14.223Z,12.10
2022-08-26T02:43:14.253Z,11.40
2022-08-26T02:44:14.182Z,11.20
2022-08-26T02:45:14.182Z,10.40
2022-08-26T02:46:27.647Z,11.70
2022-08-26T02:47:15.232Z,11.40
2022-08-26T02:48:14.175Z,14.70
2022-08-26T02:49:14.140Z,9.40
2022-08-26T02:50:14.120Z,11.30
2022-08-26T02:51:14.140Z,11.60
2022-08-26T02:52:14.100Z,10.30
2022-08-26T02:53:14.084Z,10.70
2022-08-26T02:54:14.100Z,10.70
2022-08-26T02:55:14.049Z,10.20
2022-08-26T02:56:14.039Z,10.60
2022-08-26T02:57:14.036Z,12.20
2022-08-26T02:58:14.029Z,9.10
2022-08-26T02:59:14.049Z,12.10
2022-08-26T03:00:13.989Z,9.30
2022-08-26T03:01:14.090Z,11.60
2022-08-26T03:02:14.026Z,10.60
2022-08-26T03:03:13.957Z,11.30
2022-08-26T03:04:13.959Z,13.50
2022-08-26T03:05:13.990Z,11.80
2022-08-26T03:06:13.957Z,14.40
2022-08-26T03:07:13.939Z,11.30
2022-08-26T03:08:13.903Z,9.90
2022-08-26T03:09:14.020Z,12.60
2022-08-26T03:10:14.946Z,12.80
2022-08-26T03:11:13.911Z,10.60
2022-08-26T03:12:14.034Z,12.90
2022-08-26T03:13:13.825Z,14.60
2022-08-26T03:14:13.826Z,9.80
2022-08-26T03:15:17.650Z,10.90
2022-08-26T03:16:13.836Z,12.00
2022-08-26T03:17:13.784Z,11.20
2022-08-26T03:18:13.814Z,11.50
2022-08-26T03:19:13.914Z,12.50
2022-08-26T03:20:13.811Z,12.30
2022-08-26T03:21:13.764Z,12.10
2022-08-26T03:22:14.619Z,12.10
2022-08-26T03:23:13.742Z,14.20
2022-08-26T03:24:13.693Z,11.60
2022-08-26T03:25:13.670Z,14.20
2022-08-26T03:26:13.692Z,12.70
2022-08-26T03:27:13.692Z,16.90
2022-08-26T03:28:13.698Z,11.50
2022-08-26T03:29:13.672Z,13.30
2022-08-26T03:30:13.633Z,12.20
2022-08-26T03:31:13.745Z,10.80
2022-08-26T03:32:13.588Z,14.00
2022-08-26T03:33:13.599Z,11.80
2022-08-26T03:34:13.581Z,13.40
2022-08-26T03:35:13.590Z,11.40
2022-08-26T03:36:13.589Z,12.80
2022-08-26T03:37:13.539Z,11.80
2022-08-26T03:38:13.579Z,14.50
2022-08-26T03:39:13.509Z,10.80
2022-08-26T03:40:13.522Z,12.60
2022-08-26T03:41:13.481Z,12.70
2022-08-26T03:42:13.460Z,15.50
2022-08-26T03:43:13.456Z,15.60
2022-08-26T03:44:13.438Z,14.10
2022-08-26T03:45:13.427Z,12.90
2022-08-26T03:46:13.441Z,13.00
2022-08-26T03:47:13.427Z,13.10
2022-08-26T03:48:13.397Z,14.00
2022-08-26T03:49:13.477Z,13.90
2022-08-26T03:50:13.368Z,11.60
2022-08-26T03:51:13.377Z,11.30
2022-08-26T03:52:13.376Z,12.20
2022-08-26T03:53:13.489Z,12.20
2022-08-26T03:54:13.304Z,10.60
2022-08-26T03:55:13.286Z,13.50
2022-08-26T03:56:13.399Z,12.20
2022-08-26T03:57:13.265Z,13.80
2022-08-26T03:58:13.263Z,13.60
2022-08-26T03:59:13.343Z,13.00
2022-08-26T04:00:13.304Z,12.40
2022-08-26T04:01:13.249Z,13.60
2022-08-26T04:02:13.202Z,14.40
2022-08-26T04:03:16.982Z,12.40
2022-08-26T04:04:15.629Z,12.30
2022-08-26T04:05:13.153Z,12.40
2022-08-26T04:06:13.196Z,12.90
2022-08-26T04:07:13.163Z,12.60
2022-08-26T04:08:13.162Z,12.40
2022-08-26T04:09:13.135Z,12.70
2022-08-26T04:10:13.129Z,15.00
2022-08-26T04:11:13.188Z,13.70
2022-08-26T04:12:13.099Z,13.70
2022-08-26T04:13:13.051Z,14.50
2022-08-26T04:14:13.094Z,14.30
2022-08-26T04:15:13.182Z,14.40
2022-08-26T04:16:13.224Z,12.00
2022-08-26T04:17:13.010Z,15.70
2022-08-26T04:18:12.990Z,12.40
2022-08-26T04:19:13.010Z,13.20
2022-08-26T04:20:12.969Z,13.40
2022-08-26T04:21:12.980Z,17.70
2022-08-26T04:22:12.966Z,15.30
2022-08-26T04:23:12.949Z,12.60
2022-08-26T04:24:12.908Z,12.60
2022-08-26T04:25:12.912Z,12.20
2022-08-26T04:26:12.926Z,12.00
2022-08-26T04:27:12.917Z,15.00
2022-08-26T04:28:12.955Z,11.40
2022-08-26T04:29:12.840Z,15.50
2022-08-26T04:30:12.931Z,11.70
2022-08-26T04:31:12.840Z,11.70
2022-08-26T04:32:12.832Z,12.90
2022-08-26T04:33:13.497Z,11.30
2022-08-26T04:34:14.094Z,12.00
2022-08-26T04:35:12.785Z,10.70
2022-08-26T04:36:12.828Z,13.50
2022-08-26T04:37:12.756Z,12.60
2022-08-26T04:38:12.959Z,11.90
2022-08-26T04:39:12.723Z,13.40
2022-08-26T04:40:12.779Z,13.80
2022-08-26T04:41:15.505Z,13.80
2022-08-26T04:42:12.730Z,14.90
2022-08-26T04:43:12.688Z,11.40
2022-08-26T04:44:12.668Z,15.00
2022-08-26T04:45:12.741Z,15.60
2022-08-26T04:46:12.914Z,15.80
2022-08-26T04:47:12.624Z,12.40
2022-08-26T04:48:12.630Z,14.00
2022-08-26T04:49:12.606Z,12.60
2022-08-26T04:50:12.592Z,15.00
2022-08-26T04:51:16.402Z,12.50
2022-08-26T04:52:12.606Z,12.00
2022-08-26T04:53:12.555Z,13.30
2022-08-26T04:54:12.581Z,13.90
2022-08-26T04:55:12.512Z,11.80
2022-08-26T04:56:12.555Z,12.70
2022-08-26T04:57:12.471Z,13.80
2022-08-26T04:58:12.471Z,13.10
2022-08-26T04:59:17.094Z,14.40
2022-08-26T05:00:13.471Z,13.70
2022-08-26T05:01:12.536Z,16.30
2022-08-26T05:02:12.428Z,13.40
2022-08-26T05:03:12.450Z,12.70
2022-08-26T05:04:12.447Z,14.80
2022-08-26T05:05:12.400Z,13.50
2022-08-26T05:06:12.368Z,13.90
2022-08-26T05:07:12.359Z,12.80
2022-08-26T05:08:12.359Z,12.70
2022-08-26T05:09:12.328Z,12.30
2022-08-26T05:10:12.358Z,12.80
2022-08-26T05:11:12.343Z,15.00
2022-08-26T05:12:12.310Z,14.00
2022-08-26T05:13:15.111Z,16.70
2022-08-26T05:14:12.372Z,12.60
2022-08-26T05:15:12.277Z,13.10
2022-08-26T05:16:12.295Z,14.00
2022-08-26T05:17:14.920Z,12.60
2022-08-26T05:18:12.239Z,15.60
2022-08-26T05:19:12.237Z,13.60
2022-08-26T05:20:12.262Z,15.00
2022-08-26T05:21:12.367Z,12.80
2022-08-26T05:22:13.070Z,13.60
2022-08-26T05:23:12.145Z,11.30
2022-08-26T05:24:12.322Z,15.20
2022-08-26T05:25:12.144Z,14.20
2022-08-26T05:26:12.114Z,13.00
2022-08-26T05:27:12.134Z,14.60
2022-08-26T05:28:12.086Z,13.80
2022-08-26T05:29:12.099Z,14.80
2022-08-26T05:30:12.092Z,12.10
2022-08-26T05:31:12.314Z,11.90
2022-08-26T05:32:12.049Z,12.90
2022-08-26T05:33:12.114Z,14.70
2022-08-26T05:34:12.146Z,12.00
2022-08-26T05:35:12.019Z,13.10
2022-08-26T05:36:12.013Z,13.50
2022-08-26T05:37:15.823Z,12.20
2022-08-26T05:38:12.958Z,11.50
2022-08-26T05:39:15.881Z,12.20
2022-08-26T05:40:11.951Z,12.00
2022-08-26T05:41:11.932Z,11.40
2022-08-26T05:42:11.951Z,13.10
2022-08-26T05:43:15.751Z,13.30
2022-08-26T05:44:11.881Z,12.30
2022-08-26T05:45:11.901Z,12.80
2022-08-26T05:46:11.917Z,13.70
2022-08-26T05:47:11.865Z,12.70
2022-08-26T05:48:11.875Z,12.60
2022-08-26T05:49:12.443Z,13.90
2022-08-26T05:50:11.810Z,12.10
2022-08-26T05:51:11.971Z,15.30
2022-08-26T05:52:11.783Z,14.50
2022-08-26T05:53:12.133Z,15.70
2022-08-26T05:54:11.858Z,15.30
2022-08-26T05:55:11.777Z,13.30
2022-08-26T05:56:11.748Z,15.10
2022-08-26T05:57:11.755Z,13.10
2022-08-26T05:58:11.768Z,13.40
2022-08-26T05:59:14.328Z,13.00
2022-08-26T06:00:11.708Z,15.90
2022-08-26T06:01:11.869Z,13.50
2022-08-26T06:02:11.725Z,12.90
2022-08-26T06:03:11.795Z,15.20
2022-08-26T06:04:11.676Z,14.40
2022-08-26T06:05:11.718Z,15.00
2022-08-26T06:06:11.627Z,13.10
2022-08-26T06:07:11.781Z,13.60
2022-08-26T06:08:11.646Z,11.80
2022-08-26T06:09:11.593Z,13.30
2022-08-26T06:10:31.109Z,13.00
2022-08-26T06:11:18.466Z,12.90
2022-08-26T06:12:12.624Z,13.90
2022-08-26T06:13:12.228Z,15.60
2022-08-26T06:14:11.554Z,14.70
2022-08-26T06:15:11.500Z,14.60
2022-08-26T06:16:11.577Z,12.30
2022-08-26T06:17:11.514Z,16.10
2022-08-26T06:18:11.486Z,13.10
2022-08-26T06:19:11.795Z,17.20
2022-08-26T06:20:11.604Z,13.30
2022-08-26T06:21:11.430Z,12.30
2022-08-26T06:22:11.452Z,14.50
2022-08-26T06:23:11.392Z,12.80
2022-08-26T06:24:11.446Z,14.00
2022-08-26T06:25:11.551Z,12.80
2022-08-26T06:26:11.419Z,15.40
2022-08-26T06:27:11.528Z,14.70
2022-08-26T06:28:11.371Z,12.90
2022-08-26T06:29:11.329Z,15.80
2022-08-26T06:30:12.352Z,11.50
2022-08-26T06:31:11.401Z,14.00
2022-08-26T06:32:11.331Z,14.80
2022-08-26T06:33:11.292Z,16.40
2022-08-26T06:34:11.302Z,15.00
2022-08-26T06:35:12.231Z,12.90
2022-08-26T06:36:11.290Z,13.80
2022-08-26T06:37:11.251Z,15.20
2022-08-26T06:38:11.272Z,13.60
2022-08-26T06:39:11.210Z,14.20
2022-08-26T06:40:11.608Z,16.10
2022-08-26T06:41:11.147Z,15.80
2022-08-26T06:42:11.978Z,13.10
2022-08-26T06:43:11.187Z,14.30
2022-08-26T06:44:11.122Z,12.00
2022-08-26T06:45:11.216Z,13.70
2022-08-26T06:46:11.156Z,13.20
2022-08-26T06:47:11.185Z,14.60
2022-08-26T06:48:11.159Z,15.20
2022-08-26T06:49:11.097Z,14.50
2022-08-26T06:50:11.109Z,16.00
2022-08-26T06:51:11.061Z,16.20
2022-08-26T06:52:11.050Z,16.30
2022-08-26T06:53:11.066Z,12.20
2022-08-26T06:54:11.128Z,16.40
2022-08-26T06:55:11.110Z,13.40
2022-08-26T06:56:11.127Z,14.10
2022-08-26T06:57:11.055Z,14.80
2022-08-26T06:58:11.030Z,12.30
2022-08-26T06:59:10.955Z,11.60
2022-08-26T07:00:11.055Z,10.70
2022-08-26T07:01:11.774Z,14.60
2022-08-26T07:02:11.013Z,13.30
2022-08-26T07:03:11.268Z,11.80
2022-08-26T07:04:10.926Z,12.40
2022-08-26T07:05:10.857Z,14.70
2022-08-26T07:06:10.853Z,16.50
2022-08-26T07:07:10.855Z,12.00
2022-08-26T07:08:10.853Z,10.70
2022-08-26T07:09:10.810Z,11.40
2022-08-26T07:10:10.833Z,13.80
2022-08-26T07:11:10.802Z,12.40
2022-08-26T07:12:10.786Z,14.50
2022-08-26T07:13:10.789Z,11.30
2022-08-26T07:14:10.761Z,11.80
2022-08-26T07:15:10.778Z,12.80
2022-08-26T07:16:10.808Z,12.20
2022-08-26T07:17:13.845Z,11.80
2022-08-26T07:18:10.782Z,13.80
2022-08-26T07:19:11.624Z,16.50
2022-08-26T07:20:10.681Z,10.90
2022-08-26T07:21:10.699Z,11.20
2022-08-26T07:22:10.690Z,11.40
2022-08-26T07:23:11.779Z,11.80
2022-08-26T07:24:11.200Z,12.10
2022-08-26T07:25:10.673Z,13.10
2022-08-26T07:26:10.629Z,10.60
2022-08-26T07:27:10.630Z,9.00
2022-08-26T07:28:10.719Z,11.10
2022-08-26T07:29:10.577Z,11.90
2022-08-26T07:30:10.559Z,11.10
2022-08-26T07:31:10.608Z,13.40
2022-08-26T07:32:10.509Z,13.20
2022-08-26T07:33:10.546Z,12.80
2022-08-26T07:34:10.543Z,13.00
2022-08-26T07:35:10.510Z,12.40
2022-08-26T07:36:10.488Z,13.80
2022-08-26T07:37:10.461Z,14.20
2022-08-26T07:38:10.435Z,11.50
2022-08-26T07:39:10.498Z,12.30
2022-08-26T07:40:10.471Z,14.60
2022-08-26T07:41:10.486Z,10.80
2022-08-26T07:42:10.446Z,9.80
2022-08-26T07:43:10.433Z,9.90
2022-08-26T07:44:10.377Z,11.30
2022-08-26T07:45:10.438Z,8.60
2022-08-26T07:46:14.459Z,13.70
2022-08-26T07:47:25.031Z,12.60
2022-08-26T07:48:11.327Z,13.70
2022-08-26T07:49:10.359Z,13.20
2022-08-26T07:50:10.304Z,13.90
2022-08-26T07:51:10.294Z,10.20
2022-08-26T07:52:10.284Z,12.30
2022-08-26T07:53:10.625Z,11.50
2022-08-26T07:54:10.244Z,10.60
2022-08-26T07:55:10.256Z,13.80
2022-08-26T07:56:10.221Z,13.30
2022-08-26T07:57:10.256Z,11.30
2022-08-26T07:58:10.203Z,9.90
2022-08-26T07:59:13.625Z,12.00
2022-08-26T08:00:10.208Z,9.50
2022-08-26T08:01:10.223Z,14.50
2022-08-26T08:02:10.138Z,17.20
2022-08-26T08:03:10.332Z,22.10
2022-08-26T08:04:10.279Z,25.10
2022-08-26T08:05:10.233Z,22.80
2022-08-26T08:06:10.094Z,24.30
2022-08-26T08:07:11.473Z,26.10
2022-08-26T08:08:27.190Z,28.40
2022-08-26T08:09:11.053Z,21.90
2022-08-26T08:10:11.640Z,20.50
2022-08-26T08:11:10.051Z,24.00
2022-08-26T08:12:14.119Z,14.50
2022-08-26T08:13:10.073Z,18.20
2022-08-26T08:14:11.745Z,17.10
2022-08-26T08:15:10.096Z,15.30
2022-08-26T08:16:12.709Z,12.80
2022-08-26T08:17:10.067Z,15.60
2022-08-26T08:18:15.196Z,18.40
2022-08-26T08:19:10.996Z,17.30
2022-08-26T08:20:09.935Z,14.70
2022-08-26T08:21:25.333Z,13.70
2022-08-26T08:22:17.739Z,14.00
2022-08-26T08:23:10.969Z,14.80
2022-08-26T08:24:09.839Z,11.80
2022-08-26T08:25:10.386Z,16.60
2022-08-26T08:26:09.828Z,12.60
2022-08-26T08:27:09.826Z,17.60
2022-08-26T08:28:10.040Z,13.30
2022-08-26T08:29:09.829Z,15.20
2022-08-26T08:30:09.778Z,14.80
2022-08-26T08:31:09.884Z,18.60
2022-08-26T08:32:11.540Z,12.90
2022-08-26T08:33:10.848Z,15.80
2022-08-26T08:34:09.764Z,14.10
2022-08-26T08:35:10.880Z,14.60
2022-08-26T08:36:09.737Z,16.30
2022-08-26T08:37:10.978Z,20.50
2022-08-26T08:38:09.844Z,16.40
2022-08-26T08:39:09.741Z,12.00
2022-08-26T08:40:09.749Z,13.50
2022-08-26T08:41:09.722Z,12.10
2022-08-26T08:42:09.624Z,13.50
2022-08-26T08:43:10.133Z,12.50
2022-08-26T08:44:10.029Z,14.30
2022-08-26T08:45:09.765Z,13.50
2022-08-26T08:46:09.650Z,14.50
2022-08-26T08:47:09.584Z,16.00
2022-08-26T08:48:09.886Z,15.10
2022-08-26T08:49:09.557Z,11.70
2022-08-26T08:50:09.515Z,15.80
2022-08-26T08:51:09.502Z,15.40
2022-08-26T08:52:10.159Z,12.90
2022-08-26T08:53:09.744Z,13.10
2022-08-26T08:54:09.511Z,13.00
2022-08-26T08:55:10.958Z,15.00
2022-08-26T08:56:09.548Z,14.80
2022-08-26T08:57:09.448Z,9.00
2022-08-26T08:58:09.638Z,12.50
2022-08-26T08:59:09.461Z,10.70
2022-08-26T09:00:09.422Z,12.90
2022-08-26T09:01:09.767Z,16.30
2022-08-26T09:02:09.447Z,13.30
2022-08-26T09:03:09.360Z,14.90
2022-08-26T09:04:09.569Z,14.90
2022-08-26T09:05:09.356Z,15.20
2022-08-26T09:06:10.362Z,13.60
2022-08-26T09:07:09.372Z,16.20
2022-08-26T09:08:11.280Z,14.90
2022-08-26T09:09:09.269Z,15.20
2022-08-26T09:10:09.262Z,14.80
2022-08-26T09:11:09.273Z,14.60
2022-08-26T09:12:09.290Z,16.20
2022-08-26T09:13:09.318Z,13.30
2022-08-26T09:14:09.233Z,15.70
2022-08-26T09:15:09.229Z,15.10
2022-08-26T09:16:10.003Z,12.50
2022-08-26T09:17:09.340Z,12.60
2022-08-26T09:18:10.811Z,18.10
2022-08-26T09:19:09.177Z,11.50
2022-08-26T09:20:09.157Z,14.50
2022-08-26T09:21:09.293Z,10.00
2022-08-26T09:22:09.581Z,14.50
2022-08-26T09:23:09.299Z,15.20
2022-08-26T09:24:11.305Z,13.00
2022-08-26T09:25:11.061Z,13.60
2022-08-26T09:26:09.109Z,14.50
2022-08-26T09:27:11.468Z,11.50
2022-08-26T09:28:09.233Z,18.90
2022-08-26T09:29:09.166Z,13.10
2022-08-26T09:30:11.335Z,15.50
2022-08-26T09:31:11.190Z,15.60
2022-08-26T09:32:09.002Z,16.50
2022-08-26T09:33:10.937Z,12.60
2022-08-26T09:34:09.241Z,14.00
2022-08-26T09:35:09.220Z,12.70
2022-08-26T09:36:09.276Z,16.50
2022-08-26T09:37:08.982Z,14.40
2022-08-26T09:38:11.681Z,12.50
2022-08-26T09:39:12.555Z,13.20
2022-08-26T09:40:08.991Z,14.00
2022-08-26T09:41:08.942Z,11.90
2022-08-26T09:42:09.606Z,11.70
2022-08-26T09:43:08.931Z,13.30
2022-08-26T09:44:08.875Z,12.00
2022-08-26T09:45:09.804Z,14.60
2022-08-26T09:46:08.849Z,15.30
2022-08-26T09:47:08.854Z,14.90
2022-08-26T09:48:09.211Z,15.10
2022-08-26T09:49:08.944Z,16.30
2022-08-26T09:50:09.471Z,18.20
2022-08-26T09:51:08.933Z,16.90
2022-08-26T09:52:08.716Z,12.70
2022-08-26T09:53:10.015Z,12.10
2022-08-26T09:54:08.724Z,18.90
2022-08-26T09:55:08.745Z,14.20
2022-08-26T09:56:08.717Z,18.10
2022-08-26T09:57:08.684Z,14.70
2022-08-26T09:58:09.128Z,16.80
2022-08-26T09:59:11.046Z,13.70
2022-08-26T10:00:08.690Z,13.80
2022-08-26T10:01:08.745Z,13.30
2022-08-26T10:02:12.305Z,11.50
2022-08-26T10:03:08.843Z,13.60
2022-08-26T10:04:08.662Z,15.50
2022-08-26T10:05:09.605Z,14.20
2022-08-26T10:06:08.570Z,17.20
2022-08-26T10:07:08.578Z,16.30
2022-08-26T10:08:08.570Z,15.60
2022-08-26T10:09:10.785Z,14.70
2022-08-26T10:10:08.615Z,16.90
2022-08-26T10:11:08.560Z,15.40
2022-08-26T10:12:08.484Z,9.10
2022-08-26T10:13:08.517Z,14.40
2022-08-26T10:14:08.466Z,14.90
2022-08-26T10:15:08.569Z,12.30
2022-08-26T10:16:10.702Z,13.70
2022-08-26T10:17:08.458Z,13.90
2022-08-26T10:18:08.567Z,13.00
2022-08-26T10:19:08.391Z,13.20
2022-08-26T10:20:22.491Z,12.70
2022-08-26T10:21:09.418Z,16.10
2022-08-26T10:22:08.388Z,9.40
2022-08-26T10:23:08.534Z,14.50
2022-08-26T10:24:08.418Z,13.20
2022-08-26T10:25:08.396Z,10.80
2022-08-26T10:26:08.610Z,10.80
2022-08-26T10:27:08.296Z,12.30
2022-08-26T10:28:08.410Z,10.80
2022-08-26T10:29:08.326Z,14.00
2022-08-26T10:30:08.236Z,12.60
2022-08-26T10:31:08.281Z,12.10
2022-08-26T10:32:08.310Z,13.50
2022-08-26T10:33:09.413Z,14.10
2022-08-26T10:34:08.195Z,12.20
2022-08-26T10:35:08.175Z,11.30
2022-08-26T10:36:08.194Z,14.60
2022-08-26T10:37:13.504Z,12.30
2022-08-26T10:38:09.511Z,11.50
2022-08-26T10:39:08.138Z,11.90
2022-08-26T10:40:08.205Z,13.90
2022-08-26T10:41:10.346Z,10.70
2022-08-26T10:42:08.223Z,13.10
2022-08-26T10:43:11.376Z,13.40
2022-08-26T10:44:08.074Z,14.20
2022-08-26T10:45:11.933Z,13.80
2022-08-26T10:46:09.071Z,12.50
2022-08-26T10:47:08.078Z,15.30
2022-08-26T10:48:08.239Z,14.30
2022-08-26T10:49:08.044Z,16.20
2022-08-26T10:50:08.366Z,11.60
2022-08-26T10:51:08.672Z,14.10
2022-08-26T10:52:12.343Z,12.50
2022-08-26T10:53:09.760Z,13.60
2022-08-26T10:54:08.015Z,12.40
2022-08-26T10:55:08.480Z,14.00
2022-08-26T10:56:15.698Z,15.40
2022-08-26T10:57:09.640Z,14.70
2022-08-26T10:58:09.050Z,13.50
2022-08-26T10:59:10.402Z,14.70
2022-08-26T11:00:07.931Z,13.60
2022-08-26T11:01:10.267Z,12.90
2022-08-26T11:02:07.850Z,12.10
2022-08-26T11:03:21.742Z,17.00
2022-08-26T11:04:08.850Z,13.00
2022-08-26T11:05:07.813Z,10.70
2022-08-26T11:06:07.808Z,12.90
2022-08-26T11:07:07.909Z,12.70
2022-08-26T11:08:08.052Z,11.00
2022-08-26T11:09:07.843Z,10.60
2022-08-26T11:10:07.792Z,12.50
2022-08-26T11:11:07.918Z,14.40
2022-08-26T11:12:10.296Z,11.70
2022-08-26T11:13:07.895Z,13.20
2022-08-26T11:14:07.735Z,16.00
2022-08-26T11:15:07.688Z,13.20
2022-08-26T11:16:07.774Z,12.60
2022-08-26T11:17:07.831Z,11.70
2022-08-26T11:18:07.808Z,13.60
2022-08-26T11:19:07.707Z,12.30
2022-08-26T11:20:13.486Z,12.80
2022-08-26T11:21:10.307Z,12.50
2022-08-26T11:22:07.596Z,14.00
2022-08-26T11:23:07.629Z,14.60
2022-08-26T11:24:07.586Z,13.40
2022-08-26T11:25:07.616Z,10.30
2022-08-26T11:26:07.557Z,13.30
2022-08-26T11:27:07.578Z,11.50
2022-08-26T11:28:07.545Z,11.30
2022-08-26T11:29:13.217Z,11.80
2022-08-26T11:30:08.585Z,13.50
2022-08-26T11:31:07.627Z,12.50
2022-08-26T11:32:07.465Z,15.00
2022-08-26T11:33:07.997Z,15.00
2022-08-26T11:34:10.770Z,12.40
2022-08-26T11:35:07.617Z,14.70
2022-08-26T11:36:12.220Z,14.10
2022-08-26T11:37:07.556Z,13.80
2022-08-26T11:38:07.706Z,11.30
2022-08-26T11:39:07.425Z,13.00
2022-08-26T11:40:07.443Z,13.40
2022-08-26T11:41:07.430Z,12.30
2022-08-26T11:42:07.403Z,13.50
2022-08-26T11:43:07.514Z,15.30
2022-08-26T11:44:07.343Z,11.30
2022-08-26T11:45:07.493Z,12.10
2022-08-26T11:46:07.393Z,18.10
2022-08-26T11:47:07.427Z,12.40
2022-08-26T11:48:07.528Z,16.50
2022-08-26T11:49:07.560Z,9.80
2022-08-26T11:50:07.373Z,8.70
2022-08-26T11:51:07.312Z,16.00
2022-08-26T11:52:07.204Z,16.80
2022-08-26T11:53:07.768Z,11.40
2022-08-26T11:54:07.372Z,12.30
2022-08-26T11:55:07.220Z,8.60
2022-08-26T11:56:07.170Z,7.60
2022-08-26T11:57:09.443Z,9.80
2022-08-26T11:58:07.365Z,7.20
2022-08-26T11:59:07.160Z,9.90
2022-08-26T12:00:08.400Z,8.30
2022-08-26T12:01:09.793Z,12.50
2022-08-26T12:02:07.231Z,10.50
2022-08-26T12:03:07.379Z,10.40
2022-08-26T12:04:07.338Z,7.90
2022-08-26T12:05:08.940Z,7.80
2022-08-26T12:06:07.147Z,8.00
2022-08-26T12:07:08.629Z,6.80
2022-08-26T12:08:07.165Z,3.50
2022-08-26T12:09:07.012Z,7.20
2022-08-26T12:10:07.088Z,6.90
2022-08-26T12:11:07.009Z,7.70
2022-08-26T12:12:07.147Z,5.60
2022-08-26T12:13:08.442Z,7.70
2022-08-26T12:14:07.344Z,5.90
2022-08-26T12:15:07.020Z,5.30
2022-08-26T12:16:07.011Z,5.70
2022-08-26T12:17:06.950Z,5.60
2022-08-26T12:18:06.992Z,6.30
2022-08-26T12:19:07.184Z,6.00
2022-08-26T12:20:06.939Z,6.20
2022-08-26T12:21:06.906Z,6.80
2022-08-26T12:22:06.856Z,6.70
2022-08-26T12:23:06.857Z,5.60
2022-08-26T12:24:06.883Z,6.30
2022-08-26T12:25:06.902Z,9.10
2022-08-26T12:26:06.798Z,6.00
2022-08-26T12:27:06.814Z,5.40
2022-08-26T12:28:06.777Z,5.60
2022-08-26T12:29:19.765Z,7.40
2022-08-26T12:30:08.445Z,7.30
2022-08-26T12:31:06.748Z,8.80
2022-08-26T12:32:06.752Z,6.70
2022-08-26T12:33:22.420Z,10.20
2022-08-26T12:34:17.361Z,13.60
2022-08-26T12:35:07.812Z,7.90
2022-08-26T12:36:06.765Z,8.60
2022-08-26T12:37:07.253Z,8.80
2022-08-26T12:38:06.680Z,8.20
2022-08-26T12:39:06.751Z,10.20
2022-08-26T12:40:06.749Z,8.10
2022-08-26T12:41:06.642Z,11.50
2022-08-26T12:42:06.753Z,10.70
2022-08-26T12:43:06.594Z,7.20
2022-08-26T12:44:06.653Z,6.80
2022-08-26T12:45:06.607Z,6.90
2022-08-26T12:46:06.967Z,16.20
2022-08-26T12:47:06.586Z,7.60
2022-08-26T12:48:06.640Z,7.50
2022-08-26T12:49:06.600Z,6.80
2022-08-26T12:50:06.685Z,6.30
2022-08-26T12:51:06.488Z,8.10
2022-08-26T12:52:06.564Z,8.20
2022-08-26T12:53:06.534Z,6.30
2022-08-26T12:54:06.582Z,10.10
2022-08-26T12:55:06.621Z,7.20
2022-08-26T12:56:06.852Z,8.90
2022-08-26T12:57:06.415Z,7.50